createdAt,value
2022-10-05T00:04:32.602Z,1.859531772575251
2022-10-05T00:17:44.051Z,2.0735785953177257
2022-10-05T00:28:37.578Z,1.2709030100334449
2022-10-05T00:35:05.041Z,2.331103678929766
2022-10-05T00:43:03.222Z,2.237458193979933
2022-10-05T00:49:54.936Z,2.25752508361204
2022-10-05T00:56:24.142Z,2.2842809364548495
2022-10-05T01:02:52.283Z,1.4280936454849498
2022-10-05T01:09:21.784Z,1.939799331103679
2022-10-05T01:15:50.909Z,2.511705685618729
2022-10-05T01:33:29.376Z,1.6354515050167224
2022-10-05T01:40:10.866Z,1.5451505016722409
2022-10-05T01:46:39.558Z,2.1672240802675584
2022-10-05T01:53:10.688Z,1.9531772575250836
2022-10-05T01:59:39.885Z,1.5016722408026757
2022-10-05T02:06:07.306Z,2.5150501672240804
2022-10-05T02:13:45.897Z,1.6354515050167224
2022-10-05T02:20:14.563Z,1.4615384615384615
2022-10-05T02:26:42.743Z,2.347826086956522
2022-10-05T02:38:01.252Z,1.8862876254180603
2022-10-05T02:44:29.380Z,1.4581939799331103
2022-10-05T02:50:57.051Z,1.6387959866220736
2022-10-05T03:03:38.693Z,1.6722408026755853
2022-10-05T03:10:42.456Z,1.8929765886287626
2022-10-05T03:17:11.257Z,1.3177257525083612
2022-10-05T03:28:40.284Z,1.4782608695652173
2022-10-05T03:35:21.018Z,2.4448160535117056
2022-10-05T03:44:08.725Z,1.6588628762541806
2022-10-05T03:50:39.053Z,1.9130434782608696
2022-10-05T03:57:11.757Z,2.1939799331103678
2022-10-05T04:03:42.966Z,1.8561872909698998
2022-10-05T04:10:30.406Z,2.488294314381271
2022-10-05T04:17:02.120Z,1.608695652173913
2022-10-05T04:23:42.184Z,2.1237458193979935
2022-10-05T04:31:46.397Z,2.1036789297658864
2022-10-05T04:38:19.935Z,2.0033444816053514
2022-10-05T04:59:00.073Z,2.210702341137124
2022-10-05T05:05:29.636Z,3.0735785953177257
2022-10-05T05:11:58.349Z,3.4347826086956523
2022-10-05T05:24:52.968Z,3.6053511705685617
2022-10-05T05:31:21.951Z,3.2675585284280935
2022-10-05T05:41:58.384Z,2.511705685618729
2022-10-05T05:48:26.727Z,2.197324414715719
2022-10-05T05:59:58.334Z,2.1739130434782608
2022-10-05T06:06:25.952Z,1.9464882943143813
2022-10-05T06:12:53.408Z,2.016722408026756
2022-10-05T06:19:20.750Z,2.8127090301003346
2022-10-05T06:32:06.581Z,2.311036789297659
2022-10-05T06:38:59.998Z,2.0501672240802677
2022-10-05T06:45:27.395Z,2.6454849498327757
2022-10-05T06:57:19.274Z,1.6722408026755853
2022-10-05T07:03:46.373Z,2.3578595317725752
2022-10-05T07:10:13.705Z,2.448160535117057
2022-10-05T07:16:41.086Z,1.765886287625418
2022-10-05T07:23:10.128Z,1.6822742474916388
2022-10-05T07:29:40.554Z,2.250836120401338
2022-10-05T07:36:09.798Z,2.411371237458194
2022-10-05T07:42:47.392Z,2.899665551839465
2022-10-05T07:56:29.441Z,1.6989966555183946
2022-10-05T08:03:00.582Z,1.2240802675585285
2022-10-05T08:09:27.550Z,2.120401337792642
2022-10-05T08:15:54.694Z,1.6153846153846154
2022-10-05T08:22:23.311Z,2.4448160535117056
2022-10-05T08:29:00.793Z,1.1872909698996656
2022-10-05T08:35:27.905Z,2.4214046822742477
2022-10-05T08:47:03.677Z,1.3043478260869565
2022-10-05T08:53:32.711Z,2.197324414715719
2022-10-05T09:00:35.990Z,3.0133779264214047
2022-10-05T09:07:03.281Z,1.705685618729097
2022-10-05T09:13:33.198Z,1.6989966555183946
2022-10-05T09:20:07.401Z,2.25752508361204
2022-10-05T09:26:46.712Z,0.9899665551839465
2022-10-05T09:33:14.063Z,0.6956521739130435
2022-10-05T09:39:45.089Z,1.645484949832776
2022-10-05T09:46:34.732Z,0.8494983277591973
2022-10-05T09:53:08.217Z,1.5183946488294315
2022-10-05T10:08:13.764Z,1.9130434782608696
2022-10-05T10:14:42.378Z,1.0367892976588629
2022-10-05T10:21:13.078Z,1.234113712374582
2022-10-05T10:30:16.687Z,0.8361204013377926
2022-10-05T10:36:47.026Z,1.2709030100334449
2022-10-05T10:43:20.420Z,0.8762541806020067
2022-10-05T10:49:50.393Z,1.3311036789297659
2022-10-05T11:02:13.824Z,1.0234113712374582
2022-10-05T11:13:44.565Z,0.8060200668896321
2022-10-05T11:20:12.424Z,1.1304347826086956
2022-10-05T11:26:53.794Z,0.6956521739130435
2022-10-05T11:34:20.869Z,0.8695652173913043
2022-10-05T11:44:07.096Z,0.7391304347826086
2022-10-05T11:50:34.326Z,0.43478260869565216
2022-10-05T11:57:02.438Z,0.6153846153846154
2022-10-05T12:06:04.195Z,0.9431438127090301
2022-10-05T12:17:04.253Z,0.5886287625418061
2022-10-05T12:23:33.093Z,0.9765886287625418
2022-10-05T12:30:07.130Z,1.6622073578595318
2022-10-05T12:41:09.792Z,1.0836120401337792
2022-10-05T12:47:37.580Z,1.193979933110368
2022-10-05T13:00:28.083Z,0.4013377926421405
2022-10-05T13:08:25.122Z,0.34782608695652173
2022-10-05T13:14:53.431Z,0.6086956521739131
2022-10-05T13:21:21.514Z,0.6655518394648829
2022-10-05T13:28:01.221Z,1.0267558528428093
2022-10-05T13:44:22.280Z,1.1438127090301002
2022-10-05T13:50:50.321Z,0.34782608695652173
2022-10-05T13:57:19.629Z,0.6153846153846154
2022-10-05T14:15:56.373Z,1.0501672240802675
2022-10-05T14:22:26.853Z,0.9297658862876255
2022-10-05T14:30:39.397Z,0.9230769230769231
2022-10-05T14:37:25.338Z,0.7090301003344481
2022-10-05T14:43:56.361Z,0.9765886287625418
2022-10-05T14:50:27.713Z,0.7926421404682275
2022-10-05T14:56:57.917Z,0.44816053511705684
2022-10-05T15:03:28.701Z,0.4882943143812709
2022-10-05T15:09:59.144Z,1.020066889632107
2022-10-05T15:16:29.245Z,1.3110367892976589
2022-10-05T15:23:05.396Z,1.565217391304348
2022-10-05T15:34:32.328Z,0.7391304347826086
2022-10-05T15:41:01.936Z,0.7558528428093646
2022-10-05T15:52:55.326Z,0.451505016722408
2022-10-05T15:59:26.098Z,1.0100334448160535
2022-10-05T16:05:56.971Z,0.6789297658862876
2022-10-05T16:12:28.952Z,1.7959866220735785
2022-10-05T16:26:58.925Z,0.9230769230769231
2022-10-05T16:33:26.347Z,0.6220735785953178
2022-10-05T16:39:54.495Z,1.2709030100334449
2022-10-05T16:46:27.510Z,0.6020066889632107
2022-10-05T16:57:28.006Z,1.0869565217391304
2022-10-05T17:03:55.269Z,0.6086956521739131
2022-10-05T17:13:16.715Z,0.9966555183946488
2022-10-05T17:19:45.731Z,1.0501672240802675
2022-10-05T17:26:14.036Z,1.4280936454849498
2022-10-05T17:32:53.652Z,0.7157190635451505
2022-10-05T17:39:22.269Z,0.979933110367893
2022-10-05T17:45:49.922Z,0.7625418060200669
2022-10-05T17:52:17.075Z,0.5016722408026756
2022-10-05T17:58:44.450Z,0.6153846153846154
2022-10-05T18:05:11.545Z,0.4816053511705686
2022-10-05T18:18:41.781Z,0.5351170568561873
2022-10-05T18:25:09.093Z,0.568561872909699
2022-10-05T18:31:42.862Z,0.782608695652174
2022-10-05T18:42:09.481Z,0.5953177257525084
2022-10-05T18:48:38.545Z,0.8595317725752508
2022-10-05T18:55:08.275Z,1.0
2022-10-05T19:01:45.787Z,0.8093645484949833
2022-10-05T19:08:18.687Z,0.6287625418060201
2022-10-05T19:14:49.805Z,0.7692307692307693
2022-10-05T19:21:18.107Z,0.8160535117056856
2022-10-05T19:27:49.743Z,0.8093645484949833
2022-10-05T19:38:01.900Z,1.0434782608695652
2022-10-05T19:44:31.099Z,0.5752508361204013
2022-10-05T19:59:58.622Z,0.5618729096989966
2022-10-05T20:06:26.757Z,0.9096989966555183
2022-10-05T20:12:55.227Z,1.0702341137123745
2022-10-05T20:19:24.969Z,1.0501672240802675
2022-10-05T20:27:25.253Z,0.7692307692307693
2022-10-05T20:34:01.032Z,0.782608695652174
2022-10-05T20:40:29.394Z,1.2173913043478262
2022-10-05T20:52:13.311Z,0.9498327759197325
2022-10-05T20:58:40.977Z,0.7558528428093646
2022-10-05T21:12:15.743Z,0.782608695652174
2022-10-05T21:18:43.466Z,1.1237458193979932
2022-10-05T21:27:23.519Z,0.5117056856187291
2022-10-05T21:40:10.712Z,0.7692307692307693
2022-10-05T21:46:39.677Z,0.782608695652174
2022-10-05T21:53:07.589Z,0.7023411371237458
2022-10-05T22:05:55.165Z,0.5819397993311036
2022-10-05T22:12:31.613Z,0.3411371237458194
2022-10-05T22:18:59.488Z,1.1471571906354514
2022-10-05T22:25:27.836Z,0.5351170568561873
2022-10-05T22:33:59.207Z,0.43478260869565216
2022-10-05T22:40:27.184Z,0.08695652173913043
2022-10-05T22:46:55.103Z,0.4414715719063545
2022-10-05T22:53:30.167Z,0.2508361204013378
2022-10-05T22:59:57.511Z,0.17391304347826086
2022-10-05T23:06:28.215Z,0.25418060200668896
2022-10-05T23:13:00.491Z,0.3277591973244147
2022-10-05T23:19:28.690Z,0.09364548494983277
2022-10-05T23:25:56.050Z,0.08695652173913043
2022-10-05T23:32:32.008Z,0.2608695652173913
2022-10-05T23:38:59.163Z,0.2608695652173913
2022-10-05T23:45:26.506Z,0.17391304347826086
2022-10-05T23:51:53.716Z,0.25752508361204013
2022-10-05T23:58:21.632Z,0.3076923076923077
